createdAt,value
2019-03-16T00:00:00.516Z,1.53
2019-03-16T00:02:31.216Z,4.73
2019-03-16T00:05:01.843Z,5.40
2019-03-16T00:07:33.367Z,3.10
2019-03-16T00:10:04.031Z,3.83
2019-03-16T00:12:34.550Z,4.27
2019-03-16T00:15:05.465Z,2.13
2019-03-16T00:17:36.026Z,3.63
2019-03-16T00:20:07.280Z,5.43
2019-03-16T00:22:37.829Z,5.43
2019-03-16T00:25:08.776Z,7.23
2019-03-16T00:27:39.380Z,4.37
2019-03-16T00:30:10.132Z,5.40
2019-03-16T00:32:40.918Z,5.07
2019-03-16T00:35:11.656Z,5.67
2019-03-16T00:37:42.294Z,7.07
2019-03-16T00:40:13.159Z,8.13
2019-03-16T00:42:43.655Z,5.80
2019-03-16T00:45:14.433Z,4.53
2019-03-16T00:47:45.049Z,2.57
2019-03-16T00:50:15.638Z,6.63
2019-03-16T00:52:46.326Z,4.10
2019-03-16T00:55:16.851Z,3.93
2019-03-16T00:57:47.321Z,4.63
2019-03-16T01:00:17.940Z,10.23
2019-03-16T01:02:48.432Z,4.87
2019-03-16T01:05:19.002Z,4.73
2019-03-16T01:07:49.466Z,5.17
2019-03-16T01:10:19.870Z,3.23
2019-03-16T01:12:50.390Z,5.13
2019-03-16T01:15:20.774Z,4.60
2019-03-16T01:17:51.239Z,5.40
2019-03-16T01:20:21.746Z,7.57
2019-03-16T01:22:52.170Z,10.50
2019-03-16T01:25:22.541Z,4.13
2019-03-16T01:27:53.075Z,11.13
2019-03-16T01:30:23.468Z,6.03
2019-03-16T01:32:54.015Z,7.17
2019-03-16T01:35:24.467Z,10.07
2019-03-16T01:37:54.847Z,3.70
2019-03-16T01:40:25.226Z,4.10
2019-03-16T01:42:55.843Z,4.10
2019-03-16T01:45:26.297Z,2.60
2019-03-16T01:47:56.976Z,6.80
2019-03-16T01:50:27.555Z,4.77
2019-03-16T01:52:57.970Z,7.00
2019-03-16T01:55:28.375Z,4.40
2019-03-16T01:57:58.845Z,3.73
2019-03-16T02:00:29.353Z,5.87
2019-03-16T02:02:59.826Z,7.17
2019-03-16T02:05:30.347Z,6.50
2019-03-16T02:08:00.912Z,4.53
2019-03-16T02:10:31.461Z,2.30
2019-03-16T02:13:01.855Z,4.07
2019-03-16T02:15:32.216Z,5.13
2019-03-16T02:18:02.871Z,5.73
2019-03-16T02:20:33.405Z,6.10
2019-03-16T02:23:03.975Z,7.27
2019-03-16T02:25:33.356Z,5.43
2019-03-16T02:28:02.671Z,4.87
2019-03-16T02:30:32.048Z,6.37
2019-03-16T02:33:12.396Z,6.73
2019-03-16T02:35:32.379Z,6.87
2019-03-16T02:38:01.784Z,7.40
2019-03-16T02:40:31.297Z,5.73
2019-03-16T02:43:00.607Z,5.83
2019-03-16T02:45:29.992Z,7.83
2019-03-16T02:47:59.517Z,5.07
2019-03-16T02:50:28.845Z,5.13
2019-03-16T02:52:58.142Z,6.73
2019-03-16T02:55:27.474Z,4.37
2019-03-16T02:57:56.787Z,5.43
2019-03-16T03:00:26.105Z,5.67
2019-03-16T03:02:55.804Z,4.80
2019-03-16T03:05:25.004Z,8.33
2019-03-16T03:07:54.383Z,4.80
2019-03-16T03:10:23.654Z,7.43
2019-03-16T03:12:53.001Z,3.33
2019-03-16T03:15:22.506Z,9.17
2019-03-16T03:17:51.815Z,4.90
2019-03-16T03:20:21.304Z,5.00
2019-03-16T03:22:50.594Z,7.47
2019-03-16T03:25:20.053Z,5.23
2019-03-16T03:27:49.215Z,8.00
2019-03-16T03:30:18.620Z,4.37
2019-03-16T03:32:48.310Z,5.37
2019-03-16T03:35:17.700Z,6.70
2019-03-16T03:37:47.064Z,7.73
2019-03-16T03:40:17.286Z,5.63
2019-03-16T03:42:46.620Z,9.33
2019-03-16T03:45:16.022Z,8.10
2019-03-16T03:47:45.945Z,7.67
2019-03-16T03:50:15.854Z,7.67
2019-03-16T03:52:45.354Z,8.37
2019-03-16T03:55:15.173Z,7.70
2019-03-16T03:57:44.546Z,9.00
2019-03-16T04:00:13.975Z,7.70
2019-03-16T04:02:43.235Z,9.23
2019-03-16T04:05:12.874Z,7.43
2019-03-16T04:07:42.281Z,20.17
2019-03-16T04:10:11.746Z,4.73
2019-03-16T04:12:41.227Z,7.60
2019-03-16T04:15:10.764Z,10.63
2019-03-16T04:17:40.100Z,10.87
2019-03-16T04:20:09.883Z,8.10
2019-03-16T04:22:39.376Z,10.80
2019-03-16T04:25:08.770Z,8.53
2019-03-16T04:27:38.140Z,11.37
2019-03-16T04:30:08.003Z,12.27
2019-03-16T04:32:37.284Z,12.07
2019-03-16T04:35:06.957Z,8.63
2019-03-16T04:37:36.414Z,12.63
2019-03-16T04:40:06.119Z,9.53
2019-03-16T04:42:35.434Z,9.53
2019-03-16T04:45:05.612Z,4.87
2019-03-16T04:47:35.007Z,6.20
2019-03-16T04:50:04.904Z,7.57
2019-03-16T04:52:34.257Z,15.10
2019-03-16T04:55:03.472Z,12.33
2019-03-16T04:57:33.056Z,7.53
2019-03-16T05:00:02.485Z,9.83
2019-03-16T05:02:32.050Z,10.17
2019-03-16T05:05:02.481Z,10.37
2019-03-16T05:07:32.095Z,8.37
2019-03-16T05:10:01.445Z,11.00
2019-03-16T05:12:30.754Z,7.43
2019-03-16T05:15:00.388Z,12.37
2019-03-16T05:17:29.904Z,11.23
2019-03-16T05:19:59.912Z,10.03
2019-03-16T05:22:29.525Z,8.03
2019-03-16T05:24:58.825Z,9.00
2019-03-16T05:27:28.319Z,10.10
2019-03-16T05:29:57.671Z,9.03
2019-03-16T05:32:26.965Z,6.50
2019-03-16T05:34:57.001Z,10.23
2019-03-16T05:37:26.404Z,17.57
2019-03-16T05:39:56.015Z,14.67
2019-03-16T05:42:25.383Z,9.00
2019-03-16T05:44:54.925Z,8.87
2019-03-16T05:47:24.428Z,12.27
2019-03-16T05:49:55.293Z,11.87
2019-03-16T05:52:24.794Z,12.60
2019-03-16T05:54:54.289Z,12.40
2019-03-16T05:57:23.699Z,10.30
2019-03-16T05:59:53.115Z,7.63
2019-03-16T06:02:22.335Z,12.43
2019-03-16T06:04:51.805Z,11.53
2019-03-16T06:07:21.103Z,9.93
2019-03-16T06:09:50.474Z,10.07
2019-03-16T06:12:20.086Z,7.63
2019-03-16T06:14:50.203Z,13.37
2019-03-16T06:18:17.199Z,12.80
2019-03-16T06:20:47.648Z,11.50
2019-03-16T06:23:18.491Z,12.73
2019-03-16T06:25:49.433Z,13.97
2019-03-16T06:28:20.251Z,13.47
2019-03-16T06:30:50.950Z,10.10
2019-03-16T06:33:21.364Z,9.57
2019-03-16T06:35:52.122Z,10.20
2019-03-16T06:38:22.568Z,11.00
2019-03-16T06:40:53.130Z,18.03
2019-03-16T06:43:23.632Z,12.70
2019-03-16T06:45:54.037Z,9.10
2019-03-16T06:48:24.616Z,12.77
2019-03-16T06:50:55.030Z,15.73
2019-03-16T06:53:25.521Z,12.43
2019-03-16T06:55:55.987Z,7.00
2019-03-16T06:58:26.384Z,5.47
2019-03-16T07:00:56.990Z,12.30
2019-03-16T07:03:27.654Z,10.63
2019-03-16T07:05:58.864Z,11.03
2019-03-16T07:08:29.480Z,12.13
2019-03-16T07:11:00.373Z,9.13
2019-03-16T07:13:30.782Z,10.00
2019-03-16T07:16:01.802Z,13.37
2019-03-16T07:18:32.230Z,9.27
2019-03-16T07:21:02.691Z,6.90
2019-03-16T07:23:33.467Z,10.60
2019-03-16T07:26:14.116Z,13.77
2019-03-16T07:28:36.382Z,11.77
2019-03-16T07:31:07.035Z,15.30
2019-03-16T07:33:37.515Z,12.07
2019-03-16T07:36:08.339Z,11.67
2019-03-16T07:38:38.977Z,9.00
2019-03-16T07:41:09.802Z,10.27
2019-03-16T07:43:40.321Z,10.67
2019-03-16T07:46:10.974Z,12.83
2019-03-16T07:48:41.660Z,12.87
2019-03-16T07:51:12.317Z,8.67
2019-03-16T07:53:42.679Z,14.80
2019-03-16T07:56:13.454Z,10.73
2019-03-16T07:58:43.970Z,10.07
2019-03-16T08:01:14.641Z,11.60
2019-03-16T08:03:45.145Z,8.27
2019-03-16T08:06:16.076Z,11.97
2019-03-16T08:08:46.774Z,11.80
2019-03-16T08:11:17.255Z,10.50
2019-03-16T08:13:47.834Z,14.80
2019-03-16T08:16:18.621Z,8.77
2019-03-16T08:18:49.505Z,10.20
2019-03-16T08:21:20.085Z,12.90
2019-03-16T08:23:53.682Z,12.70
2019-03-16T08:26:23.703Z,14.03
2019-03-16T08:28:54.443Z,12.43
2019-03-16T08:31:25.253Z,13.00
2019-03-16T08:33:55.601Z,9.77
2019-03-16T08:36:26.184Z,12.60
2019-03-16T08:38:56.584Z,8.20
2019-03-16T08:41:27.100Z,11.23
2019-03-16T08:43:57.811Z,7.20
2019-03-16T08:46:28.501Z,6.53
2019-03-16T08:48:59.047Z,9.47
2019-03-16T08:51:29.520Z,11.00
2019-03-16T08:54:00.115Z,11.43
2019-03-16T08:56:30.599Z,13.60
2019-03-16T08:59:01.204Z,8.80
2019-03-16T09:01:31.793Z,9.80
2019-03-16T09:04:02.352Z,8.80
2019-03-16T09:06:32.991Z,8.53
2019-03-16T09:09:04.817Z,7.57
2019-03-16T09:11:35.326Z,13.80
2019-03-16T09:14:05.941Z,11.90
2019-03-16T09:16:37.052Z,9.30
2019-03-16T09:19:07.452Z,12.73
2019-03-16T09:21:38.141Z,13.60
2019-03-16T09:24:08.770Z,10.40
2019-03-16T09:26:39.146Z,13.17
2019-03-16T09:29:15.026Z,10.53
2019-03-16T09:31:42.146Z,8.37
2019-03-16T09:34:12.561Z,10.77
2019-03-16T09:36:43.066Z,12.60
2019-03-16T09:39:13.730Z,10.73
2019-03-16T09:41:44.268Z,10.17
2019-03-16T09:44:14.748Z,11.87
2019-03-16T09:46:45.265Z,9.77
2019-03-16T09:49:15.815Z,11.13
2019-03-16T09:51:46.420Z,11.20
2019-03-16T09:54:17.026Z,7.90
2019-03-16T09:57:00.261Z,11.03
2019-03-16T09:59:19.700Z,11.00
2019-03-16T10:01:50.154Z,11.43
2019-03-16T10:04:20.643Z,10.17
2019-03-16T10:06:51.212Z,12.83
2019-03-16T10:09:22.063Z,17.90
2019-03-16T10:11:52.465Z,7.83
2019-03-16T10:14:22.986Z,9.93
2019-03-16T10:16:53.917Z,11.07
2019-03-16T10:19:24.391Z,9.80
2019-03-16T10:21:54.906Z,16.60
2019-03-16T10:24:25.417Z,10.20
2019-03-16T10:26:55.846Z,16.17
2019-03-16T10:29:26.297Z,9.27
2019-03-16T10:31:57.180Z,8.23
2019-03-16T10:34:27.742Z,14.60
2019-03-16T10:36:58.276Z,15.50
2019-03-16T10:39:28.866Z,15.43
2019-03-16T10:41:59.440Z,9.03
2019-03-16T10:44:29.906Z,19.27
2019-03-16T10:47:00.544Z,11.97
2019-03-16T10:49:31.145Z,12.17
2019-03-16T10:52:01.676Z,7.43
2019-03-16T10:54:32.155Z,9.63
2019-03-16T10:57:04.416Z,9.30
2019-03-16T10:59:35.315Z,9.37
2019-03-16T11:02:05.982Z,9.57
2019-03-16T11:04:36.412Z,12.73
2019-03-16T11:07:06.967Z,9.03
2019-03-16T11:09:37.532Z,8.27
2019-03-16T11:12:08.255Z,9.33
2019-03-16T11:14:41.068Z,11.33
2019-03-16T11:17:11.258Z,11.10
2019-03-16T11:19:42.741Z,24.10
2019-03-16T11:22:13.226Z,10.13
2019-03-16T11:24:43.778Z,13.17
2019-03-16T11:27:17.040Z,10.30
2019-03-16T11:29:46.470Z,14.57
2019-03-16T11:32:16.926Z,9.67
2019-03-16T11:34:47.356Z,5.63
2019-03-16T11:37:17.849Z,8.60
2019-03-16T11:39:48.318Z,9.27
2019-03-16T11:42:18.871Z,9.33
2019-03-16T11:44:49.366Z,7.40
2019-03-16T11:47:20.545Z,7.90
2019-03-16T11:49:51.031Z,8.57
2019-03-16T11:52:21.853Z,9.23
2019-03-16T11:54:52.232Z,7.73
2019-03-16T11:57:22.879Z,11.10
2019-03-16T11:59:53.360Z,7.97
2019-03-16T12:02:23.804Z,6.47
2019-03-16T12:04:54.391Z,8.73
2019-03-16T12:07:24.914Z,5.63
2019-03-16T12:09:55.470Z,9.50
2019-03-16T12:12:26.097Z,6.90
2019-03-16T12:14:56.634Z,7.03
2019-03-16T12:17:27.056Z,8.37
2019-03-16T12:19:57.603Z,9.97
2019-03-16T12:22:28.479Z,8.67
2019-03-16T12:24:59.058Z,4.47
2019-03-16T12:27:29.706Z,7.27
2019-03-16T12:30:00.379Z,11.27
2019-03-16T12:32:30.956Z,5.80
2019-03-16T12:35:01.392Z,3.57
2019-03-16T12:37:31.841Z,7.53
2019-03-16T12:40:02.296Z,6.27
2019-03-16T12:42:32.690Z,11.00
2019-03-16T12:45:03.238Z,9.27
2019-03-16T12:47:33.743Z,8.37
2019-03-16T12:50:04.742Z,9.57
2019-03-16T12:52:35.198Z,9.00
2019-03-16T12:55:06.632Z,11.20
2019-03-16T12:57:37.350Z,7.83
2019-03-16T13:00:10.447Z,6.00
2019-03-16T13:02:41.002Z,8.50
2019-03-16T13:05:11.848Z,15.10
2019-03-16T13:07:42.341Z,8.30
2019-03-16T13:10:13.651Z,5.33
2019-03-16T13:12:44.284Z,6.23
2019-03-16T13:15:14.930Z,9.10
2019-03-16T13:17:45.491Z,4.30
2019-03-16T13:20:16.102Z,5.60
2019-03-16T13:22:46.600Z,4.97
2019-03-16T13:25:17.477Z,10.83
2019-03-16T13:27:48.322Z,4.73
2019-03-16T13:30:18.959Z,6.00
2019-03-16T13:32:49.819Z,6.73
2019-03-16T13:35:20.522Z,5.73
2019-03-16T13:37:50.990Z,4.07
2019-03-16T13:40:21.630Z,6.03
2019-03-16T13:42:52.121Z,4.30
2019-03-16T13:45:22.726Z,4.87
2019-03-16T13:47:53.276Z,8.77
2019-03-16T13:50:23.834Z,5.70
2019-03-16T13:52:54.994Z,10.47
2019-03-16T13:55:25.476Z,5.67
2019-03-16T13:57:55.955Z,4.00
2019-03-16T14:00:26.912Z,2.93
2019-03-16T14:02:57.639Z,3.90
2019-03-16T14:05:28.451Z,4.63
2019-03-16T14:07:58.962Z,3.67
2019-03-16T14:10:30.022Z,6.53
2019-03-16T14:13:00.694Z,6.57
2019-03-16T14:15:31.322Z,4.77
2019-03-16T14:18:02.065Z,3.00
2019-03-16T14:20:32.533Z,3.30
2019-03-16T14:23:03.488Z,6.37
2019-03-16T14:25:34.409Z,5.00
2019-03-16T14:28:05.000Z,2.63
2019-03-16T14:30:41.773Z,3.60
2019-03-16T14:33:07.756Z,4.47
2019-03-16T14:35:38.308Z,3.23
2019-03-16T14:38:09.447Z,3.07
2019-03-16T14:40:39.821Z,3.77
2019-03-16T14:43:11.558Z,4.10
2019-03-16T14:45:42.217Z,3.60
2019-03-16T14:48:12.819Z,2.93
2019-03-16T14:50:43.166Z,3.03
2019-03-16T14:53:13.556Z,2.07
2019-03-16T14:55:44.121Z,3.97
2019-03-16T14:58:14.770Z,1.47
2019-03-16T15:00:45.214Z,2.83
2019-03-16T15:03:15.808Z,2.13
2019-03-16T15:05:46.687Z,3.23
2019-03-16T15:08:17.171Z,2.83
2019-03-16T15:10:47.690Z,2.90
2019-03-16T15:13:18.218Z,4.10
2019-03-16T15:15:48.810Z,3.00
2019-03-16T15:18:19.352Z,6.97
2019-03-16T15:20:50.556Z,4.30
2019-03-16T15:23:21.043Z,1.87
2019-03-16T15:25:52.905Z,6.33
2019-03-16T15:28:23.614Z,5.23
2019-03-16T15:30:54.019Z,3.60
2019-03-16T15:33:24.511Z,3.07
2019-03-16T15:35:55.319Z,6.03
2019-03-16T15:38:25.888Z,4.97
2019-03-16T15:40:56.332Z,6.40
2019-03-16T15:43:29.655Z,5.37
2019-03-16T15:46:00.278Z,6.97
2019-03-16T15:48:30.758Z,4.80
2019-03-16T15:51:01.243Z,6.23
2019-03-16T15:53:31.826Z,6.60
2019-03-16T15:56:02.394Z,5.77
2019-03-16T15:58:32.979Z,6.70
2019-03-16T16:01:05.191Z,9.77
2019-03-16T16:03:35.913Z,9.83
2019-03-16T16:06:09.985Z,9.77
2019-03-16T16:08:40.509Z,7.83
2019-03-16T16:11:12.162Z,7.97
2019-03-16T16:13:42.809Z,8.90
2019-03-16T16:16:14.302Z,9.63
2019-03-16T16:18:46.076Z,8.60
2019-03-16T16:21:16.597Z,8.50
2019-03-16T16:23:48.260Z,7.73
2019-03-16T16:26:21.021Z,9.97
2019-03-16T16:28:52.822Z,8.93
2019-03-16T16:31:24.485Z,5.83
2019-03-16T16:34:02.779Z,6.67
2019-03-16T16:36:32.706Z,7.53
2019-03-16T16:39:06.198Z,15.57
2019-03-16T16:41:38.734Z,8.43
2019-03-16T16:44:09.545Z,6.47
2019-03-16T16:46:41.386Z,7.70
2019-03-16T16:49:12.102Z,9.23
2019-03-16T16:51:42.775Z,10.23
2019-03-16T16:54:13.486Z,9.60
2019-03-16T16:56:44.466Z,8.53
2019-03-16T16:59:17.101Z,11.37
2019-03-16T17:01:47.731Z,11.10
2019-03-16T17:04:18.252Z,15.43
2019-03-16T17:06:48.858Z,16.77
2019-03-16T17:09:21.532Z,16.43
2019-03-16T17:11:52.107Z,19.10
2019-03-16T17:14:25.000Z,22.73
2019-03-16T17:16:59.029Z,20.17
2019-03-16T17:19:31.667Z,19.07
2019-03-16T17:22:02.109Z,15.63
2019-03-16T17:24:34.235Z,14.83
2019-03-16T17:27:05.038Z,13.63
2019-03-16T17:29:38.744Z,20.07
2019-03-16T17:32:10.525Z,34.33
2019-03-16T17:34:41.433Z,35.60
2019-03-16T17:37:13.071Z,35.87
2019-03-16T17:39:45.066Z,35.60
2019-03-16T17:42:15.871Z,29.97
2019-03-16T17:44:47.545Z,32.50
2019-03-16T17:47:20.347Z,41.87
2019-03-16T17:49:51.106Z,43.10
2019-03-16T17:52:21.607Z,39.73
2019-03-16T17:54:53.299Z,42.20
2019-03-16T17:57:23.892Z,49.07
2019-03-16T18:00:00.424Z,53.27
2019-03-16T18:02:31.376Z,47.17
2019-03-16T18:05:04.251Z,63.77
2019-03-16T18:07:35.515Z,48.47
2019-03-16T18:10:07.096Z,49.63
2019-03-16T18:12:37.776Z,49.93
2019-03-16T18:15:11.986Z,50.40
2019-03-16T18:17:42.506Z,43.77
2019-03-16T18:20:17.077Z,45.67
2019-03-16T18:22:47.016Z,41.30
2019-03-16T18:25:18.880Z,44.50
2019-03-16T18:27:50.143Z,42.43
2019-03-16T18:30:24.926Z,42.93
2019-03-16T18:32:59.038Z,44.93
2019-03-16T18:35:33.911Z,40.17
2019-03-16T18:38:12.691Z,41.17
2019-03-16T18:40:43.641Z,38.90
2019-03-16T18:43:17.578Z,39.50
2019-03-16T18:45:57.232Z,30.20
2019-03-16T18:48:30.525Z,32.67
2019-03-16T18:51:02.500Z,29.73
2019-03-16T18:53:33.279Z,27.90
2019-03-16T18:56:04.997Z,25.23
2019-03-16T18:58:38.277Z,31.20
2019-03-16T19:01:12.493Z,34.60
2019-03-16T19:03:44.341Z,34.50
2019-03-16T19:06:15.339Z,33.87
2019-03-16T19:08:45.981Z,30.03
2019-03-16T19:11:16.631Z,31.37
2019-03-16T19:13:50.379Z,25.63
2019-03-16T19:16:21.198Z,29.70
2019-03-16T19:18:57.780Z,26.00
2019-03-16T19:21:31.890Z,26.07
2019-03-16T19:24:02.406Z,27.40
2019-03-16T19:26:35.516Z,29.17
2019-03-16T19:29:10.470Z,27.33
2019-03-16T19:31:44.168Z,25.10
2019-03-16T19:34:16.788Z,29.43
2019-03-16T19:36:47.379Z,27.23
2019-03-16T19:39:21.499Z,28.07
2019-03-16T19:41:56.179Z,28.80
2019-03-16T19:44:34.001Z,31.33
2019-03-16T19:47:09.840Z,29.03
2019-03-16T19:49:40.648Z,29.17
2019-03-16T19:52:12.340Z,33.47
2019-03-16T19:54:45.204Z,33.97
2019-03-16T19:57:16.524Z,32.27
2019-03-16T19:59:52.662Z,34.27
2019-03-16T20:02:23.514Z,36.17
2019-03-16T20:04:56.237Z,36.63
2019-03-16T20:07:32.394Z,37.20
2019-03-16T20:10:04.469Z,38.07
2019-03-16T20:12:35.145Z,39.07
2019-03-16T20:15:11.161Z,40.10
2019-03-16T20:17:42.004Z,40.10
2019-03-16T20:20:20.027Z,45.57
2019-03-16T20:22:50.869Z,39.97
2019-03-16T20:25:27.018Z,42.87
2019-03-16T20:28:06.740Z,43.07
2019-03-16T20:30:37.336Z,35.60
2019-03-16T20:33:07.831Z,39.27
2019-03-16T20:35:38.423Z,46.43
2019-03-16T20:38:09.006Z,40.10
2019-03-16T20:40:49.799Z,41.57
2019-03-16T20:43:22.711Z,38.97
2019-03-16T20:45:56.409Z,38.00
2019-03-16T20:48:32.547Z,40.00
2019-03-16T20:51:04.342Z,39.63
2019-03-16T20:53:35.955Z,43.90
2019-03-16T20:56:06.565Z,37.83
2019-03-16T20:58:39.546Z,41.73
2019-03-16T21:01:14.996Z,40.87
2019-03-16T21:03:51.079Z,38.60
2019-03-16T21:06:22.593Z,45.53
2019-03-16T21:09:02.662Z,44.47
2019-03-16T21:11:26.253Z,51.60
2019-03-16T21:13:57.886Z,39.13
2019-03-16T21:16:30.900Z,40.30
2019-03-16T21:19:08.395Z,45.27
2019-03-16T21:21:40.072Z,41.23
2019-03-16T21:24:11.979Z,41.63
2019-03-16T21:26:52.268Z,44.50
2019-03-16T21:29:26.227Z,40.40
2019-03-16T21:31:55.576Z,40.77
2019-03-16T21:34:36.617Z,52.23
2019-03-16T21:37:08.495Z,45.67
2019-03-16T21:39:39.092Z,40.83
2019-03-16T21:42:10.022Z,37.93
2019-03-16T21:44:40.486Z,44.80
2019-03-16T21:47:11.052Z,45.47
2019-03-16T21:49:41.677Z,45.00
2019-03-16T21:52:12.460Z,41.17
2019-03-16T21:54:42.879Z,45.63
2019-03-16T21:57:13.489Z,41.03
2019-03-16T21:59:46.469Z,64.20
2019-03-16T22:02:17.079Z,44.13
2019-03-16T22:04:47.651Z,45.73
2019-03-16T22:07:18.172Z,40.20
2019-03-16T22:09:48.637Z,45.27
2019-03-16T22:12:19.058Z,51.37
2019-03-16T22:14:49.651Z,44.93
2019-03-16T22:17:20.138Z,42.10
2019-03-16T22:19:50.758Z,38.63
2019-03-16T22:22:21.347Z,37.50
2019-03-16T22:24:51.740Z,40.53
2019-03-16T22:27:22.241Z,40.83
2019-03-16T22:29:52.739Z,42.97
2019-03-16T22:32:23.592Z,40.97
2019-03-16T22:34:54.264Z,41.53
2019-03-16T22:37:24.756Z,46.47
2019-03-16T22:39:55.193Z,51.73
2019-03-16T22:42:25.652Z,44.07
2019-03-16T22:44:56.043Z,56.30
2019-03-16T22:47:26.599Z,47.83
2019-03-16T22:49:57.101Z,46.70
2019-03-16T22:52:27.682Z,46.67
2019-03-16T22:54:58.231Z,49.90
2019-03-16T22:57:28.869Z,46.50
2019-03-16T22:59:59.300Z,48.40
2019-03-16T23:02:29.830Z,47.90
2019-03-16T23:05:00.412Z,47.50
2019-03-16T23:07:30.789Z,48.67
2019-03-16T23:10:01.352Z,50.67
2019-03-16T23:12:31.846Z,48.73
2019-03-16T23:15:02.429Z,47.60
2019-03-16T23:17:33.073Z,47.93
2019-03-16T23:20:03.660Z,46.10
2019-03-16T23:22:34.138Z,51.77
2019-03-16T23:25:04.852Z,45.37
2019-03-16T23:27:35.337Z,54.30
2019-03-16T23:30:06.399Z,63.20
2019-03-16T23:32:37.016Z,56.77
2019-03-16T23:35:07.890Z,57.37
2019-03-16T23:37:38.319Z,54.47
2019-03-16T23:40:09.144Z,50.37
2019-03-16T23:42:39.658Z,46.27
2019-03-16T23:45:10.775Z,56.27
2019-03-16T23:47:41.371Z,65.30
2019-03-16T23:50:12.132Z,53.93
2019-03-16T23:52:42.787Z,47.87
2019-03-16T23:55:13.506Z,46.07
2019-03-16T23:57:44.008Z,41.83
